createdAt,value
2018-12-17T00:00:28.783Z,22.87
2018-12-17T00:02:57.975Z,21.97
2018-12-17T00:05:26.924Z,21.48
2018-12-17T00:07:56.167Z,21.20
2018-12-17T00:10:25.070Z,19.17
2018-12-17T00:12:53.949Z,21.85
2018-12-17T00:15:22.952Z,21.70
2018-12-17T00:17:51.837Z,20.35
2018-12-17T00:20:20.777Z,22.95
2018-12-17T00:22:49.701Z,23.50
2018-12-17T00:25:18.637Z,21.73
2018-12-17T00:27:47.502Z,21.82
2018-12-17T00:30:16.394Z,21.15
2018-12-17T00:32:45.364Z,22.37
2018-12-17T00:35:14.377Z,19.98
2018-12-17T00:37:43.317Z,20.32
2018-12-17T00:40:12.584Z,20.70
2018-12-17T00:42:41.592Z,22.10
2018-12-17T00:45:10.617Z,21.60
2018-12-17T00:47:39.522Z,20.17
2018-12-17T00:50:08.758Z,23.25
2018-12-17T00:52:37.669Z,20.10
2018-12-17T00:55:07.097Z,22.55
2018-12-17T00:57:36.046Z,19.82
2018-12-17T01:00:08.064Z,18.60
2018-12-17T01:02:36.989Z,20.27
2018-12-17T01:05:06.802Z,19.57
2018-12-17T01:07:35.893Z,19.27
2018-12-17T01:10:06.985Z,19.10
2018-12-17T01:12:35.895Z,20.10
2018-12-17T01:15:06.332Z,21.05
2018-12-17T01:17:35.327Z,21.87
2018-12-17T01:20:05.395Z,19.25
2018-12-17T01:22:34.477Z,21.52
2018-12-17T01:25:03.554Z,17.70
2018-12-17T01:27:32.510Z,19.12
2018-12-17T01:30:01.445Z,20.82
2018-12-17T01:32:30.413Z,20.12
2018-12-17T01:34:59.308Z,18.67
2018-12-17T01:37:28.182Z,19.77
2018-12-17T01:39:57.105Z,18.37
2018-12-17T01:42:26.042Z,20.35
2018-12-17T01:44:54.892Z,20.12
2018-12-17T01:47:23.815Z,17.52
2018-12-17T01:49:52.706Z,19.77
2018-12-17T01:52:21.606Z,18.32
2018-12-17T01:54:50.537Z,21.30
2018-12-17T01:57:19.413Z,19.77
2018-12-17T01:59:48.288Z,20.68
2018-12-17T02:02:17.195Z,18.40
2018-12-17T02:04:46.413Z,19.55
2018-12-17T02:07:16.253Z,18.12
2018-12-17T02:09:45.265Z,19.77
2018-12-17T02:12:14.237Z,20.55
2018-12-17T02:14:43.234Z,21.90
2018-12-17T02:17:12.169Z,17.85
2018-12-17T02:19:41.064Z,19.85
2018-12-17T02:22:09.961Z,19.75
2018-12-17T02:24:38.915Z,20.43
2018-12-17T02:27:07.786Z,19.80
2018-12-17T02:29:36.671Z,18.45
2018-12-17T02:32:05.622Z,20.68
2018-12-17T02:34:34.478Z,20.27
2018-12-17T02:37:03.450Z,20.65
2018-12-17T02:39:32.361Z,21.82
2018-12-17T02:42:01.245Z,19.50
2018-12-17T02:44:30.324Z,21.23
2018-12-17T02:46:59.213Z,22.42
2018-12-17T02:49:28.437Z,22.00
2018-12-17T02:51:57.437Z,21.27
2018-12-17T02:54:26.383Z,17.77
2018-12-17T02:56:55.264Z,18.60
2018-12-17T02:59:24.141Z,18.30
2018-12-17T03:01:53.361Z,21.23
2018-12-17T03:04:22.249Z,20.40
2018-12-17T03:06:51.142Z,24.07
2018-12-17T03:09:20.037Z,23.70
2018-12-17T03:11:48.947Z,22.73
2018-12-17T03:14:17.886Z,21.07
2018-12-17T03:16:46.849Z,25.95
2018-12-17T03:19:15.696Z,21.45
2018-12-17T03:21:44.601Z,23.62
2018-12-17T03:24:13.533Z,21.52
2018-12-17T03:26:42.430Z,21.35
2018-12-17T03:29:11.314Z,21.70
2018-12-17T03:31:40.822Z,22.95
2018-12-17T03:34:09.820Z,21.33
2018-12-17T03:36:38.714Z,24.18
2018-12-17T03:39:08.064Z,28.40
2018-12-17T03:41:37.197Z,22.90
2018-12-17T03:44:06.121Z,22.48
2018-12-17T03:46:35.069Z,25.57
2018-12-17T03:49:04.007Z,24.02
2018-12-17T03:51:32.873Z,25.95
2018-12-17T03:54:01.871Z,25.65
2018-12-17T03:56:30.750Z,25.75
2018-12-17T03:58:59.678Z,23.65
2018-12-17T04:01:28.629Z,24.37
2018-12-17T04:03:57.506Z,28.32
2018-12-17T04:06:26.385Z,23.22
2018-12-17T04:08:55.315Z,24.20
2018-12-17T04:11:24.191Z,24.47
2018-12-17T04:13:53.156Z,24.47
2018-12-17T04:16:22.144Z,25.43
2018-12-17T04:18:51.040Z,23.10
2018-12-17T04:21:19.931Z,22.50
2018-12-17T04:23:48.847Z,24.67
2018-12-17T04:26:17.719Z,24.10
2018-12-17T04:28:46.636Z,26.02
2018-12-17T04:31:15.687Z,26.68
2018-12-17T04:33:44.537Z,28.30
2018-12-17T04:36:13.422Z,24.50
2018-12-17T04:38:42.393Z,25.37
2018-12-17T04:41:11.273Z,24.72
2018-12-17T04:43:40.155Z,24.63
2018-12-17T04:46:09.039Z,22.90
2018-12-17T04:48:37.907Z,25.68
2018-12-17T04:51:07.753Z,26.20
2018-12-17T04:53:36.693Z,26.05
2018-12-17T04:56:05.655Z,25.40
2018-12-17T04:58:34.528Z,26.42
2018-12-17T05:01:03.511Z,28.10
2018-12-17T05:03:33.377Z,28.00
2018-12-17T05:06:02.277Z,27.77
2018-12-17T05:08:32.042Z,28.95
2018-12-17T05:11:00.955Z,30.52
2018-12-17T05:13:29.830Z,29.25
2018-12-17T05:15:58.761Z,30.97
2018-12-17T05:18:27.701Z,33.08
2018-12-17T05:20:56.593Z,32.35
2018-12-17T05:23:25.586Z,32.00
2018-12-17T05:25:54.486Z,31.95
2018-12-17T05:28:23.396Z,30.17
2018-12-17T05:30:52.342Z,30.92
2018-12-17T05:33:21.973Z,32.38
2018-12-17T05:35:50.848Z,33.02
2018-12-17T05:38:19.771Z,34.18
2018-12-17T05:40:49.189Z,38.55
2018-12-17T05:43:18.140Z,37.40
2018-12-17T05:45:47.058Z,35.20
2018-12-17T05:48:15.961Z,31.27
2018-12-17T05:50:44.913Z,32.23
2018-12-17T05:53:13.941Z,33.48
2018-12-17T05:55:44.216Z,31.55
2018-12-17T05:58:13.349Z,32.30
2018-12-17T06:00:42.250Z,28.80
2018-12-17T06:03:11.111Z,33.70
2018-12-17T06:05:40.017Z,33.05
2018-12-17T06:08:10.939Z,33.67
2018-12-17T06:10:39.840Z,32.83
2018-12-17T06:13:08.770Z,31.10
2018-12-17T06:15:37.694Z,31.93
2018-12-17T06:18:06.654Z,29.02
2018-12-17T06:20:35.719Z,29.77
2018-12-17T06:23:04.618Z,29.45
2018-12-17T06:25:34.107Z,28.40
2018-12-17T06:28:03.133Z,26.93
2018-12-17T06:30:31.996Z,26.33
2018-12-17T06:33:00.910Z,25.70
2018-12-17T06:35:29.840Z,28.25
2018-12-17T06:37:58.759Z,26.65
2018-12-17T06:40:27.693Z,29.65
2018-12-17T06:42:56.625Z,25.23
2018-12-17T06:45:25.557Z,26.62
2018-12-17T06:47:54.481Z,32.83
2018-12-17T06:50:23.467Z,28.23
2018-12-17T06:52:52.362Z,25.68
2018-12-17T06:55:21.298Z,31.15
2018-12-17T06:57:50.695Z,27.35
2018-12-17T07:00:19.597Z,28.98
2018-12-17T07:02:48.522Z,28.02
2018-12-17T07:05:17.441Z,31.35
2018-12-17T07:07:46.315Z,26.45
2018-12-17T07:10:15.235Z,30.23
2018-12-17T07:12:44.181Z,26.20
2018-12-17T07:15:13.086Z,27.90
2018-12-17T07:17:42.021Z,25.92
2018-12-17T07:20:11.045Z,27.37
2018-12-17T07:22:39.945Z,28.17
2018-12-17T07:25:08.889Z,27.90
2018-12-17T07:27:37.884Z,28.85
2018-12-17T07:30:07.291Z,27.73
2018-12-17T07:32:36.187Z,29.60
2018-12-17T07:35:05.453Z,29.32
2018-12-17T07:37:34.378Z,26.82
2018-12-17T07:40:03.320Z,28.73
2018-12-17T07:42:32.614Z,25.68
2018-12-17T07:45:01.811Z,27.62
2018-12-17T07:47:30.806Z,26.95
2018-12-17T07:49:59.778Z,25.15
2018-12-17T07:52:28.689Z,28.12
2018-12-17T07:54:57.674Z,27.85
2018-12-17T07:57:26.625Z,30.85
2018-12-17T07:59:56.906Z,24.70
2018-12-17T08:02:26.277Z,28.25
2018-12-17T08:04:55.254Z,26.42
2018-12-17T08:07:24.154Z,28.90
2018-12-17T08:09:53.056Z,28.85
2018-12-17T08:12:22.049Z,28.05
2018-12-17T08:14:50.964Z,29.77
2018-12-17T08:17:20.151Z,28.50
2018-12-17T08:19:49.218Z,29.50
2018-12-17T08:22:18.277Z,30.43
2018-12-17T08:24:47.173Z,32.80
2018-12-17T08:27:16.094Z,28.90
2018-12-17T08:29:44.961Z,29.05
2018-12-17T08:32:13.898Z,28.67
2018-12-17T08:34:43.429Z,31.55
2018-12-17T08:37:12.918Z,27.65
2018-12-17T08:39:41.897Z,30.35
2018-12-17T08:42:11.724Z,29.20
2018-12-17T08:44:40.897Z,30.88
2018-12-17T08:47:10.325Z,29.52
2018-12-17T08:49:39.376Z,28.10
2018-12-17T08:52:08.307Z,27.55
2018-12-17T08:54:37.243Z,27.90
2018-12-17T08:57:06.328Z,26.62
2018-12-17T08:59:35.203Z,27.07
2018-12-17T09:02:04.194Z,25.90
2018-12-17T09:04:33.458Z,25.32
2018-12-17T09:07:02.538Z,28.62
2018-12-17T09:09:31.490Z,26.52
2018-12-17T09:12:00.549Z,26.77
2018-12-17T09:14:29.590Z,27.22
2018-12-17T09:16:58.550Z,26.42
2018-12-17T09:19:27.689Z,27.10
2018-12-17T09:22:20.235Z,28.57
2018-12-17T09:25:05.624Z,26.48
2018-12-17T09:27:56.121Z,30.02
2018-12-17T09:30:45.550Z,27.55
2018-12-17T09:33:14.452Z,30.02
2018-12-17T09:36:05.200Z,27.65
2018-12-17T09:38:34.119Z,29.50
2018-12-17T09:41:03.130Z,28.23
2018-12-17T09:43:32.018Z,27.30
2018-12-17T09:46:01.145Z,27.82
2018-12-17T09:48:30.227Z,28.45
2018-12-17T09:50:59.103Z,28.42
2018-12-17T09:53:27.994Z,28.85
2018-12-17T09:55:57.050Z,28.52
2018-12-17T09:58:26.123Z,31.23
2018-12-17T10:00:55.026Z,28.40
2018-12-17T10:03:24.545Z,29.02
2018-12-17T10:05:54.237Z,29.60
2018-12-17T10:08:23.080Z,28.40
2018-12-17T10:10:52.078Z,25.40
2018-12-17T10:13:20.949Z,23.32
2018-12-17T10:15:49.856Z,27.40
2018-12-17T10:18:18.781Z,24.70
2018-12-17T10:20:47.665Z,24.12
2018-12-17T10:23:16.548Z,26.90
2018-12-17T10:25:45.482Z,24.63
2018-12-17T10:28:14.348Z,24.02
2018-12-17T10:30:43.377Z,24.10
2018-12-17T10:33:12.472Z,22.75
2018-12-17T10:35:41.378Z,22.07
2018-12-17T10:38:10.645Z,24.07
2018-12-17T10:40:39.715Z,22.93
2018-12-17T10:43:08.631Z,26.00
2018-12-17T10:45:37.535Z,25.45
2018-12-17T10:48:06.533Z,22.80
2018-12-17T10:50:36.603Z,24.72
2018-12-17T10:53:05.611Z,23.98
2018-12-17T10:55:34.557Z,24.82
2018-12-17T10:58:03.661Z,20.52
2018-12-17T11:00:39.699Z,21.00
2018-12-17T11:03:12.939Z,23.77
2018-12-17T11:05:45.374Z,22.40
2018-12-17T11:08:15.157Z,26.93
2018-12-17T11:10:44.096Z,22.65
2018-12-17T11:13:13.029Z,24.25
2018-12-17T11:15:41.898Z,23.70
2018-12-17T11:18:10.861Z,23.87
2018-12-17T11:20:39.913Z,25.52
2018-12-17T11:23:08.881Z,26.37
2018-12-17T11:25:37.784Z,23.70
2018-12-17T11:28:06.729Z,23.60
2018-12-17T11:30:50.397Z,23.52
2018-12-17T11:33:19.408Z,27.00
2018-12-17T11:35:48.454Z,25.57
2018-12-17T11:38:17.382Z,25.55
2018-12-17T11:40:46.313Z,23.55
2018-12-17T11:43:15.378Z,25.45
2018-12-17T11:45:44.493Z,34.13
2018-12-17T11:48:13.655Z,31.75
2018-12-17T11:50:42.751Z,25.60
2018-12-17T11:53:11.774Z,27.25
2018-12-17T11:55:40.834Z,26.73
2018-12-17T11:58:16.472Z,25.37
2018-12-17T12:01:19.111Z,26.07
2018-12-17T12:03:48.452Z,29.75
2018-12-17T12:06:17.556Z,25.70
2018-12-17T12:08:46.627Z,23.60
2018-12-17T12:11:16.318Z,27.93
2018-12-17T12:13:46.733Z,25.85
2018-12-17T12:16:16.356Z,23.95
2018-12-17T12:18:46.831Z,25.60
2018-12-17T12:21:16.668Z,24.63
2018-12-17T12:23:45.966Z,28.40
2018-12-17T12:26:15.915Z,26.95
2018-12-17T12:28:45.160Z,25.90
2018-12-17T12:31:15.234Z,29.52
2018-12-17T12:33:45.326Z,26.70
2018-12-17T12:36:15.551Z,26.80
2018-12-17T12:38:45.079Z,26.80
2018-12-17T12:41:14.348Z,26.70
2018-12-17T12:43:44.516Z,25.85
2018-12-17T12:46:14.570Z,28.27
2018-12-17T12:48:43.832Z,27.98
2018-12-17T12:51:13.611Z,28.32
2018-12-17T12:53:42.902Z,30.68
2018-12-17T12:56:12.105Z,29.30
2018-12-17T12:58:41.326Z,32.28
2018-12-17T13:01:10.755Z,27.50
2018-12-17T13:03:40.764Z,30.57
2018-12-17T13:06:13.392Z,32.05
2018-12-17T13:08:42.619Z,27.73
2018-12-17T13:11:11.878Z,27.25
2018-12-17T13:13:41.734Z,29.12
2018-12-17T13:16:10.928Z,27.85
2018-12-17T13:18:40.093Z,28.32
2018-12-17T13:21:10.096Z,29.35
2018-12-17T13:23:39.299Z,31.82
2018-12-17T13:26:08.594Z,30.02
2018-12-17T13:28:37.651Z,29.05
2018-12-17T13:31:07.240Z,30.43
2018-12-17T13:33:37.290Z,29.95
2018-12-17T13:36:06.810Z,28.15
2018-12-17T13:38:35.881Z,30.10
2018-12-17T13:41:05.790Z,32.25
2018-12-17T13:43:35.572Z,29.15
2018-12-17T13:46:04.872Z,29.60
2018-12-17T13:48:34.011Z,28.85
2018-12-17T13:51:08.426Z,31.15
2018-12-17T13:53:37.566Z,26.95
2018-12-17T13:56:06.489Z,28.90
2018-12-17T13:58:35.421Z,28.38
2018-12-17T14:01:04.322Z,28.90
2018-12-17T14:03:33.220Z,27.15
2018-12-17T14:06:02.150Z,26.05
2018-12-17T14:08:31.034Z,31.65
2018-12-17T14:10:59.944Z,32.65
2018-12-17T14:13:28.871Z,35.52
2018-12-17T14:16:03.351Z,34.83
2018-12-17T14:18:37.474Z,35.00
2018-12-17T14:21:11.629Z,35.55
2018-12-17T14:23:40.566Z,35.23
2018-12-17T14:26:09.456Z,36.77
2018-12-17T14:28:38.322Z,35.88
2018-12-17T14:31:08.521Z,35.08
2018-12-17T14:33:37.546Z,37.73
2018-12-17T14:36:09.890Z,35.05
2018-12-17T14:38:39.529Z,32.75
2018-12-17T14:41:08.420Z,34.45
2018-12-17T14:43:37.385Z,29.77
2018-12-17T14:46:06.324Z,30.27
2018-12-17T14:48:35.390Z,27.58
2018-12-17T14:51:04.386Z,30.72
2018-12-17T14:53:33.329Z,31.80
2018-12-17T14:56:02.541Z,35.65
2018-12-17T14:58:31.571Z,34.92
2018-12-17T15:01:00.522Z,38.85
2018-12-17T15:03:29.401Z,33.90
2018-12-17T15:05:58.377Z,37.48
2018-12-17T15:08:27.427Z,37.83
2018-12-17T15:10:56.329Z,36.08
2018-12-17T15:13:25.275Z,35.70
2018-12-17T15:15:54.157Z,37.93
2018-12-17T15:18:23.029Z,40.28
2018-12-17T15:20:51.985Z,39.08
2018-12-17T15:23:20.936Z,36.45
2018-12-17T15:25:49.806Z,32.17
2018-12-17T15:28:18.744Z,34.50
2018-12-17T15:30:47.737Z,32.63
2018-12-17T15:33:16.661Z,33.45
2018-12-17T15:35:45.804Z,34.73
2018-12-17T15:38:14.724Z,40.63
2018-12-17T15:40:43.650Z,33.85
2018-12-17T15:43:13.038Z,35.92
2018-12-17T15:45:41.974Z,38.33
2018-12-17T15:48:10.889Z,36.38
2018-12-17T15:50:39.840Z,34.23
2018-12-17T15:53:08.701Z,40.15
2018-12-17T15:55:37.584Z,39.67
2018-12-17T15:58:06.556Z,43.28
2018-12-17T16:00:35.502Z,48.68
2018-12-17T16:03:04.530Z,49.60
2018-12-17T16:05:33.506Z,46.90
2018-12-17T16:08:02.429Z,40.95
2018-12-17T16:10:31.497Z,42.10
2018-12-17T16:13:01.500Z,44.75
2018-12-17T16:15:30.613Z,41.95
2018-12-17T16:18:00.765Z,39.80
2018-12-17T16:20:29.865Z,42.90
2018-12-17T16:22:59.001Z,40.12
2018-12-17T16:25:28.837Z,42.17
2018-12-17T16:27:58.127Z,41.55
2018-12-17T16:30:27.204Z,49.67
2018-12-17T16:32:56.260Z,47.45
2018-12-17T16:35:25.309Z,48.95
2018-12-17T16:37:54.386Z,49.85
2018-12-17T16:40:23.880Z,51.30
2018-12-17T16:42:52.760Z,49.55
2018-12-17T16:45:21.689Z,47.10
2018-12-17T16:47:50.695Z,48.58
2018-12-17T16:50:19.586Z,50.70
2018-12-17T16:52:48.629Z,46.75
2018-12-17T16:55:17.586Z,52.25
2018-12-17T16:57:46.486Z,49.93
2018-12-17T17:00:15.404Z,49.83
2018-12-17T17:02:44.319Z,47.17
2018-12-17T17:05:13.273Z,47.35
2018-12-17T17:07:42.130Z,46.35
2018-12-17T17:10:11.128Z,46.85
2018-12-17T17:12:40.058Z,48.08
2018-12-17T17:15:11.568Z,42.03
2018-12-17T17:17:40.452Z,46.45
2018-12-17T17:20:09.813Z,45.70
2018-12-17T17:22:38.793Z,49.77
2018-12-17T17:25:07.824Z,48.15
2018-12-17T17:27:36.770Z,48.55
2018-12-17T17:30:06.794Z,47.98
2018-12-17T17:32:35.719Z,47.85
2018-12-17T17:35:05.132Z,46.45
2018-12-17T17:37:34.493Z,46.10
2018-12-17T17:40:03.644Z,50.63
2018-12-17T17:42:32.678Z,44.20
2018-12-17T17:45:01.735Z,42.85
2018-12-17T17:47:30.628Z,47.40
2018-12-17T17:49:59.550Z,48.73
2018-12-17T17:52:28.536Z,49.75
2018-12-17T17:54:57.570Z,46.37
2018-12-17T17:57:26.526Z,44.85
2018-12-17T17:59:55.505Z,45.25
2018-12-17T18:02:24.399Z,40.70
2018-12-17T18:04:53.286Z,43.08
2018-12-17T18:07:22.180Z,43.25
2018-12-17T18:09:51.048Z,46.02
2018-12-17T18:12:19.966Z,49.75
2018-12-17T18:14:48.915Z,45.75
2018-12-17T18:17:17.850Z,39.45
2018-12-17T18:19:46.757Z,42.38
2018-12-17T18:22:15.813Z,41.28
2018-12-17T18:24:52.191Z,40.40
2018-12-17T18:27:21.227Z,40.33
2018-12-17T18:29:50.167Z,41.37
2018-12-17T18:32:25.986Z,43.05
2018-12-17T18:34:51.163Z,43.28
2018-12-17T18:37:20.068Z,48.92
2018-12-17T18:39:48.995Z,46.23
2018-12-17T18:42:17.997Z,43.17
2018-12-17T18:44:47.213Z,42.70
2018-12-17T18:47:16.152Z,45.65
2018-12-17T18:49:45.069Z,47.00
2018-12-17T18:52:14.090Z,46.37
2018-12-17T18:54:42.999Z,42.88
2018-12-17T18:57:12.164Z,46.13
2018-12-17T18:59:42.931Z,46.25
2018-12-17T19:02:12.078Z,47.25
2018-12-17T19:04:41.530Z,50.43
2018-12-17T19:07:10.494Z,49.55
2018-12-17T19:09:39.632Z,50.78
2018-12-17T19:12:08.561Z,52.03
2018-12-17T19:14:37.559Z,47.88
2018-12-17T19:17:06.716Z,48.28
2018-12-17T19:19:35.695Z,56.15
2018-12-17T19:22:04.702Z,49.67
2018-12-17T19:24:33.723Z,47.35
2018-12-17T19:27:02.753Z,45.38
2018-12-17T19:29:31.750Z,48.10
2018-12-17T19:32:00.737Z,47.40
2018-12-17T19:34:29.778Z,59.00
2018-12-17T19:36:58.751Z,53.60
2018-12-17T19:39:27.732Z,46.42
2018-12-17T19:41:56.653Z,45.12
2018-12-17T19:44:25.785Z,48.23
2018-12-17T19:46:54.863Z,52.67
2018-12-17T19:49:24.054Z,49.35
2018-12-17T19:51:53.146Z,50.55
2018-12-17T19:54:22.275Z,58.75
2018-12-17T19:56:51.408Z,49.98
2018-12-17T19:59:20.340Z,50.65
2018-12-17T20:01:49.897Z,54.08
2018-12-17T20:04:19.713Z,51.00
2018-12-17T20:06:48.962Z,56.63
2018-12-17T20:09:17.986Z,50.67
2018-12-17T20:11:48.339Z,54.48
2018-12-17T20:14:18.492Z,54.70
2018-12-17T20:16:47.780Z,49.33
2018-12-17T20:19:16.846Z,51.95
2018-12-17T20:21:45.867Z,52.38
2018-12-17T20:24:15.896Z,52.60
2018-12-17T20:26:45.387Z,52.38
2018-12-17T20:29:14.350Z,55.25
2018-12-17T20:31:44.059Z,58.30
2018-12-17T20:34:13.049Z,56.73
2018-12-17T20:36:43.417Z,52.17
2018-12-17T20:39:12.606Z,51.20
2018-12-17T20:41:41.932Z,53.58
2018-12-17T20:44:11.029Z,48.23
2018-12-17T20:46:40.087Z,51.28
2018-12-17T20:49:09.638Z,47.00
2018-12-17T20:51:39.474Z,44.08
2018-12-17T20:54:12.937Z,55.20
2018-12-17T20:56:41.980Z,52.00
2018-12-17T20:59:10.970Z,45.65
2018-12-17T21:01:41.236Z,47.38
2018-12-17T21:04:11.702Z,44.08
2018-12-17T21:06:41.386Z,42.40
2018-12-17T21:09:11.698Z,44.15
2018-12-17T21:11:41.261Z,40.58
2018-12-17T21:14:14.164Z,36.40
2018-12-17T21:16:43.678Z,38.05
2018-12-17T21:19:14.288Z,39.80
2018-12-17T21:21:43.475Z,38.98
2018-12-17T21:24:12.947Z,39.25
2018-12-17T21:26:42.848Z,41.92
2018-12-17T21:29:12.866Z,42.40
2018-12-17T21:31:43.658Z,39.63
2018-12-17T21:34:12.648Z,39.80
2018-12-17T21:36:59.216Z,41.98
2018-12-17T21:39:28.237Z,40.85
2018-12-17T21:41:58.712Z,43.10
2018-12-17T21:44:28.058Z,42.75
2018-12-17T21:46:57.016Z,42.30
2018-12-17T21:49:26.821Z,42.95
2018-12-17T21:51:55.990Z,41.70
2018-12-17T21:54:24.909Z,45.73
2018-12-17T21:56:53.874Z,47.08
2018-12-17T21:59:23.504Z,44.18
2018-12-17T22:01:52.425Z,45.80
2018-12-17T22:04:21.409Z,41.63
2018-12-17T22:06:50.340Z,44.38
2018-12-17T22:09:19.575Z,44.20
2018-12-17T22:11:49.816Z,43.13
2018-12-17T22:14:19.545Z,43.05
2018-12-17T22:16:48.573Z,41.80
2018-12-17T22:19:17.537Z,41.70
2018-12-17T22:21:46.580Z,39.92
2018-12-17T22:24:15.526Z,43.50
2018-12-17T22:26:44.493Z,44.25
2018-12-17T22:29:13.380Z,41.77
2018-12-17T22:31:42.289Z,41.63
2018-12-17T22:34:11.214Z,42.23
2018-12-17T22:36:40.130Z,43.05
2018-12-17T22:39:09.041Z,41.23
2018-12-17T22:41:38.015Z,45.50
2018-12-17T22:44:06.892Z,44.93
2018-12-17T22:46:35.824Z,44.83
2018-12-17T22:49:04.816Z,42.75
2018-12-17T22:51:33.712Z,42.73
2018-12-17T22:54:02.725Z,40.52
2018-12-17T22:56:31.634Z,44.45
2018-12-17T22:59:00.565Z,42.80
2018-12-17T23:01:29.506Z,42.48
2018-12-17T23:03:58.461Z,43.40
2018-12-17T23:06:27.360Z,39.92
2018-12-17T23:09:06.071Z,40.20
2018-12-17T23:11:51.461Z,39.67
2018-12-17T23:14:31.506Z,45.08
2018-12-17T23:17:11.504Z,40.70
2018-12-17T23:19:43.721Z,41.08
2018-12-17T23:22:12.806Z,41.63
2018-12-17T23:24:42.607Z,40.10
2018-12-17T23:27:11.527Z,49.35
2018-12-17T23:29:40.485Z,46.28
2018-12-17T23:32:09.346Z,46.37
2018-12-17T23:34:38.356Z,44.18
2018-12-17T23:37:07.250Z,45.43
2018-12-17T23:39:36.123Z,45.60
2018-12-17T23:42:05.027Z,43.78
2018-12-17T23:44:37.344Z,47.60
2018-12-17T23:47:06.292Z,46.05
2018-12-17T23:49:35.161Z,43.30
2018-12-17T23:52:04.080Z,45.73
2018-12-17T23:54:32.993Z,45.98
2018-12-17T23:57:01.944Z,44.08
2018-12-17T23:59:30.839Z,45.60
